Main page
METAR-TAF:

METAR-TAF

Airports :

London Biggin Hill, England

London Biggin Hill Airport

latitude: 51-19N, longitude: 000-02E, elevation: 183 m

Current weather observation

The report was made 28 minutes ago, at 06:50 UTC
Wind 8 kt from the East/Southeast, varying between East and South/Southeast
Temperature 19°C
Humidity 68%
Pressure 1020 hPa
Visibility 10 km or more
no clouds below 1500 m and no cumulonimbus

METAR: EGKB 260650Z 12008KT 080V150 CAVOK 19/13 Q1020

Time: 08:18 (07:18 UTC)

Forecast

The report was made 1 hour and 18 minutes ago, at 06:00 UTC
Forecast valid from 26 at 06 UTC to 26 at 15 UTC
Wind 9 kt from the East
Visibility: 8000 m
Becoming
from 26 at 06 UTC to 26 at 08 UTC
Visibility 10 km or more
no clouds below 1500 m and no cumulonimbus

TAF: EGKB 260600Z 2606/2615 10009KT 8000 NSC BECMG 2606/2608 CAVOK

Weather observations and forecasts of more than 4000 airports (METAR and TAF reports).

The available stations are represented by yellow and red dots on the map.

Hover mouse over dot to see the name of the station.

Then click to see weather observations and forecasts.

To change the map : click on the green buttons with a black cross to zoom in, on the green button with a dash to zoom out, or on the green arrows for adjacent maps.


METAR-TAF: